Latest Weather Observations for Kalgoorlie-Boulder

IDW60801

Issued at 12:02 pm WST Monday 30 March 2015 (issued every 30 minutes, with the page automatically refreshed every 10 minutes)

About weather observations | Map of weather stations | Latest weather observations for WA | Other Formats
Station Details ID: 012038 Name: KALGOORLIE-BOULDER AIRPORT Lat: -30.78 Lon: 121.45 Height: 365.3 m
Data from the previous 72 hours. | See also: Recent months at Kalgoorlie-Boulder
Date/Time
WST
Temp
°C
App
Temp
°C
Dew
Point
Rel
Hum
%
Delta-T
°C
Wind Press
QNH
hPa
Press
MSL
hPa
Rain
since 9 am
mm
Dir
 
Spd
km/h
Gust
km/h
Spd
kts
Gust
kts
30/12:00pm 30.7 27.7 7.5 23 12.8 NE 13 22 7 12 1018.8 - 0.0
30/11:30am 29.5 26.8 9.1 28 11.5 NNE 13 20 7 11 1019.4 - 0.0
30/11:00am 28.1 25.7 10.2 32 10.2 NNE 13 19 7 10 1020.0 - 0.0
30/10:30am 27.4 24.8 10.6 35 9.6 N 15 24 8 13 1020.7 - 0.0
30/10:00am 26.9 23.9 10.6 36 9.3 NNE 17 24 9 13 1020.8 - 0.0
30/09:30am 25.2 21.8 10.7 40 8.2 NNE 19 28 10 15 1021.1 - 0.0
30/09:00am 24.0 21.1 10.9 43 7.4 NNE 17 26 9 14 1021.3 1019.6 0.0
30/08:30am 23.3 20.8 11.1 46 6.9 NNE 15 20 8 11 1021.5 - 0.0
30/08:00am 22.2 19.7 11.2 49 6.2 NNE 15 22 8 12 1021.5 - 0.0
30/07:30am 21.1 19.0 11.1 52 5.6 NE 13 17 7 9 1021.3 - 0.0
30/06:30am 18.3 16.8 10.4 60 4.3 NNE 9 13 5 7 1020.9 - 0.0
30/06:00am 18.3 16.3 10.2 59 4.4 NE 11 17 6 9 1020.7 1019.0 0.0
30/05:30am 18.3 16.8 10.4 60 4.3 NE 9 15 5 8 1020.2 - 0.0
30/05:00am 18.5 16.0 9.8 57 4.7 NNE 13 20 7 11 1019.7 - 0.0
30/04:30am 18.8 15.4 9.2 53 5.1 NE 17 24 9 13 1019.3 - 0.0
30/04:00am 18.9 15.8 8.7 51 5.4 NE 15 20 8 11 1019.3 - 0.0
30/03:30am 19.0 16.2 8.6 51 5.5 NE 13 20 7 11 1019.4 - 0.0
30/03:00am 19.4 16.1 8.2 48 5.9 NE 15 22 8 12 1019.3 1017.6 0.0
30/02:30am 19.8 16.4 7.7 45 6.3 NE 15 22 8 12 1019.5 - 0.0
30/02:00am 19.9 16.9 7.9 46 6.3 ENE 13 20 7 11 1019.7 - 0.0
30/01:30am 20.3 16.4 7.2 42 6.8 ENE 17 22 9 12 1019.7 - 0.0
30/01:00am 20.5 17.1 7.5 43 6.8 ENE 15 22 8 12 1020.0 - 0.0
30/12:30am 20.9 16.9 6.5 39 7.4 ENE 17 24 9 13 1020.2 - 0.0
30/12:00am 21.5 17.0 6.0 36 7.9 ENE 19 30 10 16 1020.5 1018.8 0.0
 
Date/Time
WST
Temp
°C
App
Temp
°C
Dew
Point
Rel
Hum
%
Delta-T
°C
Wind Press
QNH
hPa
Press
MSL
hPa
Rain
since 9 am
mm
Dir
 
Spd
km/h
Gust
km/h
Spd
kts
Gust
kts
29/11:30pm 21.7 17.6 6.1 36 8.0 ENE 17 28 9 15 1020.7 - 0.0
29/11:00pm 22.1 18.0 6.4 36 8.1 ENE 17 28 9 15 1020.8 - 0.0
29/10:30pm 22.4 18.1 7.1 37 8.0 E 19 24 10 13 1020.9 - 0.0
29/10:00pm 23.0 19.5 7.2 36 8.3 E 15 24 8 13 1021.3 - 0.0
29/09:30pm 22.4 19.4 7.7 38 7.8 E 13 20 7 11 1021.3 - 0.0
29/09:00pm 21.0 19.2 9.4 47 6.3 E 9 11 5 6 1021.4 1019.7 0.0
29/08:30pm 20.5 19.6 10.7 53 5.4 ESE 6 7 3 4 1021.4 - 0.0
29/08:00pm 21.2 19.9 9.9 48 6.2 SE 7 9 4 5 1021.3 - 0.0
29/07:30pm 22.1 20.6 9.0 43 7.1 SE 7 9 4 5 1021.0 - 0.0
29/07:00pm 23.2 20.9 7.3 36 8.4 SE 9 11 5 6 1020.9 - 0.0
29/06:30pm 23.4 21.2 7.9 37 8.3 ESE 9 11 5 6 1020.8 - 0.0
29/06:00pm 24.7 22.3 7.2 32 9.3 E 9 13 5 7 1020.7 1019.0 0.0
29/05:30pm 26.0 22.9 5.7 27 10.6 ENE 11 15 6 8 1020.5 - 0.0
29/05:00pm 26.4 23.3 5.5 26 10.9 E 11 19 6 10 1020.1 - 0.0
29/04:30pm 27.1 23.7 6.1 26 11.1 E 13 19 7 10 1020.0 - 0.0
29/04:00pm 26.6 23.6 6.1 27 10.8 E 11 19 6 10 1019.8 - 0.0
29/03:30pm 26.9 23.4 5.5 25 11.2 NE 13 22 7 12 1019.8 - 0.0
29/03:00pm 26.8 23.0 5.6 25 11.1 E 15 24 8 13 1019.8 1018.1 0.0
29/02:30pm 26.6 23.6 6.1 27 10.8 E 11 24 6 13 1020.0 - 0.0
29/02:00pm 26.5 24.0 6.5 28 10.6 ENE 9 19 5 10 1020.5 - 0.0
29/01:30pm 26.2 21.9 5.4 26 10.8 NNE 17 22 9 12 1020.7 - 0.0
29/01:00pm 26.3 21.4 5.0 25 11.0 E 20 28 11 15 1021.2 - 0.0
29/12:30pm 26.3 22.5 5.9 27 10.7 ENE 15 24 8 13 1021.6 - 0.0
29/12:00pm 25.5 21.5 6.6 30 10.0 E 17 24 9 13 1022.0 1020.3 0.0
29/11:30am 24.3 21.1 8.4 36 8.6 E 15 22 8 12 1022.2 - 0.0
29/11:00am 24.5 21.7 8.5 36 8.7 ENE 13 24 7 13 1022.7 - 0.0
29/10:30am 23.6 21.2 9.9 42 7.6 ENE 13 20 7 11 1023.1 - 0.0
29/10:00am 22.9 21.0 11.7 49 6.4 NE 13 20 7 11 1023.4 - 0.0
29/09:30am 21.5 19.7 12.2 55 5.3 E 13 19 7 10 1023.6 - 0.0
29/09:00am 20.6 19.4 12.8 61 4.5 ENE 11 17 6 9 1023.6 1021.9 0.2
29/08:30am 19.4 17.8 12.7 65 3.8 ENE 13 17 7 9 1023.6 - 0.2
29/08:00am 18.4 16.4 12.6 69 3.3 ENE 15 19 8 10 1023.4 - 0.2
29/07:30am 17.2 16.7 12.8 75 2.5 ENE 7 11 4 6 1023.1 - 0.2
29/07:00am 15.1 14.8 12.6 85 1.4 SE 6 9 3 5 1022.7 - 0.2
29/06:30am 14.0 13.5 12.2 89 1.0 SE 6 9 3 5 1022.5 - 0.2
29/06:00am 13.3 12.5 11.8 91 0.8 SE 7 9 4 5 1022.2 1020.5 0.2
29/05:30am 13.6 12.9 11.9 89 0.9 SE 7 9 4 5 1022.0 - 0.2
29/05:00am 13.8 12.8 12.2 90 0.9 SE 9 13 5 7 1021.4 - 0.2
29/04:30am 13.9 13.3 12.3 90 0.9 SE 7 9 4 5 1021.3 - 0.2
29/04:00am 14.2 13.6 12.2 88 1.1 SE 7 9 4 5 1021.0 - 0.2
29/03:30am 14.4 13.4 12.4 88 1.1 SE 9 11 5 6 1021.0 - 0.2
29/03:00am 14.6 14.0 12.2 85 1.3 SSE 7 9 4 5 1020.7 1019.0 0.2
29/02:30am 14.4 14.0 12.4 88 1.1 SSE 6 9 3 5 1020.7 - 0.2
29/02:00am 14.8 13.9 12.6 87 1.2 S 9 11 5 6 1020.6 - 0.2
29/01:30am 15.6 14.4 12.7 83 1.6 S 11 13 6 7 1020.9 - 0.2
29/01:00am 17.1 16.5 12.3 73 2.7 NNE 7 9 4 5 1020.8 - 0.2
29/12:30am 17.6 17.0 12.4 71 2.9 NNE 7 9 4 5 1020.8 - 0.2
29/12:00am 17.7 17.1 12.2 70 3.1 NNE 7 9 4 5 1020.8 1019.1 0.2
 
Date/Time
WST
Temp
°C
App
Temp
°C
Dew
Point
Rel
Hum
%
Delta-T
°C
Wind Press
QNH
hPa
Press
MSL
hPa
Rain
since 9 am
mm
Dir
 
Spd
km/h
Gust
km/h
Spd
kts
Gust
kts
28/11:30pm 18.4 16.9 12.0 66 3.6 NNE 11 15 6 8 1020.7 - 0.2
28/11:00pm 18.8 17.7 12.0 64 3.8 NNE 9 13 5 7 1020.8 - 0.2
28/10:30pm 18.1 17.7 12.4 69 3.2 NNE 6 7 3 4 1020.8 - 0.2
28/10:00pm 18.5 18.1 12.3 67 3.5 NNE 6 9 3 5 1020.9 - 0.2
28/09:30pm 20.0 18.8 11.6 58 4.7 NE 9 13 5 7 1020.9 - 0.2
28/09:00pm 18.8 18.5 12.8 68 3.4 ENE 6 7 3 4 1020.8 1019.1 0.2
28/08:30pm 19.0 18.3 13.1 68 3.4 ESE 9 11 5 6 1020.5 - 0.2
28/08:00pm 19.9 19.0 12.5 62 4.2 SE 9 11 5 6 1020.1 - 0.2
28/07:30pm 20.3 19.4 12.6 61 4.4 SE 9 11 5 6 1019.9 - 0.2
28/07:00pm 20.7 19.9 12.9 61 4.5 SE 9 11 5 6 1019.5 - 0.2
28/06:30pm 21.5 20.5 12.4 56 5.2 E 9 11 5 6 1019.2 - 0.2
28/06:00pm 22.2 21.1 11.8 51 5.9 E 9 13 5 7 1018.9 1017.2 0.2
28/05:30pm 23.1 21.0 11.3 47 6.7 E 13 15 7 8 1018.7 - 0.2
28/05:00pm 23.5 21.9 11.6 47 6.8 ESE 11 15 6 8 1018.6 - 0.2
28/04:30pm 23.6 22.1 11.9 47 6.7 ESE 11 17 6 9 1018.4 - 0.2
28/04:00pm 23.5 21.5 11.6 47 6.8 ESE 13 20 7 11 1018.4 - 0.2
28/03:30pm 23.4 21.8 11.5 47 6.8 ESE 11 19 6 10 1018.4 - 0.2
28/03:00pm 23.6 22.6 12.2 48 6.6 ESE 9 17 5 9 1018.3 1016.6 0.2
28/02:30pm 23.4 21.5 11.9 48 6.6 SE 13 22 7 12 1018.5 - 0.2
28/02:00pm 23.4 21.9 11.9 48 6.6 E 11 17 6 9 1018.6 - 0.2
28/01:50pm 23.4 22.3 12.1 49 6.5 SE 9 20 5 11 1018.6 - 0.2
28/01:32pm 22.7 20.9 12.1 51 6.1 SE 13 19 7 10 1018.9 - 0.2
28/01:30pm 22.7 21.3 12.1 51 6.1 ESE 11 19 6 10 1018.9 - 0.2
28/01:00pm 22.4 20.3 12.3 52 5.8 S 15 22 8 12 1019.3 - 0.2
28/12:30pm 21.6 21.3 13.2 59 4.9 S 7 15 4 8 1019.7 - 0.2
28/12:00pm 20.4 19.2 12.9 62 4.3 SSE 11 15 6 8 1020.1 1018.5 0.2
28/11:30am 19.9 19.4 13.9 68 3.5 SE 9 15 5 8 1020.5 - 0.0
28/11:13am 19.3 18.9 14.2 72 3.0 S 9 13 5 7 1020.7 - 0.0
28/11:00am 18.5 18.4 14.0 75 2.6 S 7 13 4 7 1020.9 - 0.0
28/10:30am 17.3 16.9 14.0 81 1.9 SSE 9 13 5 7 1021.0 - 0.0
28/10:00am 16.5 15.3 13.9 84 1.5 SSE 13 19 7 10 1021.3 - 0.0
28/09:30am 15.5 14.7 14.1 91 0.8 S 11 17 6 9 1021.3 - 0.0
28/09:00am 15.1 13.9 14.1 94 0.6 S 13 19 7 10 1021.3 1019.6 5.6
28/08:30am 14.8 14.2 13.4 91 0.8 S 9 13 5 7 1021.2 - 5.6
28/08:26am 14.8 14.3 13.7 93 0.6 S 9 13 5 7 1021.2 - 5.6
28/08:00am 14.5 14.4 14.0 97 0.3 SSE 7 9 4 5 1021.0 - 5.6
28/07:30am 14.4 13.9 13.9 97 0.3 SSE 9 13 5 7 1020.8 - 5.6
28/07:27am 14.5 13.9 13.6 94 0.5 SSE 9 15 5 8 1020.8 - 5.6
28/07:00am 14.3 14.1 13.6 96 0.4 SSE 7 13 4 7 1020.3 - 5.6
28/06:57am 14.4 14.2 13.7 96 0.4 SSE 7 11 4 6 1020.2 - 5.6
28/06:30am 14.3 13.8 13.8 97 0.3 SE 9 11 5 6 1019.9 - 5.6
28/06:00am 14.3 14.2 13.9 97 0.2 SE 7 11 4 6 1019.6 1017.9 5.6
28/05:30am 14.3 14.2 13.9 97 0.2 SE 7 9 4 5 1019.5 - 5.6
28/05:00am 14.2 14.1 13.8 97 0.2 SSE 7 11 4 6 1019.2 - 5.6
28/04:30am 14.1 13.6 13.7 97 0.2 SSE 9 11 5 6 1019.0 - 5.6
28/04:01am 14.2 13.7 13.7 97 0.3 SE 9 13 5 7 1018.8 - 5.6
28/04:00am 14.3 13.7 13.6 96 0.4 SE 9 15 5 8 1018.8 - 5.6
28/03:30am 14.4 14.2 13.5 94 0.5 SE 7 9 4 5 1018.8 - 5.6
28/03:00am 14.3 14.1 13.6 96 0.4 SSE 7 11 4 6 1018.8 1017.1 5.6
28/02:30am 14.4 13.8 13.5 94 0.5 SE 9 11 5 6 1018.7 - 5.6
28/02:00am 14.3 14.3 13.6 96 0.4 SE 6 9 3 5 1019.1 - 5.6
28/01:30am 14.3 13.6 13.2 93 0.6 E 9 11 5 6 1019.2 - 5.6
28/01:00am 14.2 13.5 13.3 94 0.5 E 9 11 5 6 1019.4 - 5.6
28/12:30am 14.1 13.8 13.4 96 0.4 ESE 7 11 4 6 1019.6 - 5.6
28/12:00am 13.9 13.2 13.2 96 0.4 E 9 13 5 7 1019.7 1018.0 5.6
 
Date/Time
WST
Temp
°C
App
Temp
°C
Dew
Point
Rel
Hum
%
Delta-T
°C
Wind Press
QNH
hPa
Press
MSL
hPa
Rain
since 9 am
mm
Dir
 
Spd
km/h
Gust
km/h
Spd
kts
Gust
kts
27/11:30pm 14.1 13.8 13.4 96 0.4 SE 7 9 4 5 1020.1 - 5.6
27/11:02pm 14.0 13.8 13.1 94 0.5 SSE 6 9 3 5 1020.5 - 5.6
27/11:00pm 14.0 13.9 13.3 96 0.4 SE 6 9 3 5 1020.5 - 5.6
27/10:30pm 14.1 14.0 13.2 94 0.5 E 6 9 3 5 1020.7 - 5.6
27/10:00pm 14.1 13.5 13.4 96 0.4 ESE 9 13 5 7 1021.0 - 5.6
27/09:43pm 14.0 13.7 13.3 96 0.4 SSE 7 9 4 5 1021.3 - 5.6
27/09:30pm 14.1 13.8 13.4 96 0.4 SSE 7 11 4 6 1021.3 - 5.6
27/09:00pm 14.3 13.4 13.6 96 0.4 ESE 11 13 6 7 1021.2 1019.5 5.6
27/08:30pm 14.3 13.3 13.4 94 0.5 E 11 13 6 7 1021.2 - 5.6
27/08:00pm 14.2 13.6 13.5 96 0.4 NE 9 13 5 7 1020.9 - 5.6
27/07:30pm 14.6 13.6 13.5 93 0.6 NE 11 15 6 8 1020.7 - 5.6
27/07:00pm 14.8 14.3 13.7 93 0.6 ENE 9 13 5 7 1020.5 - 5.6
27/06:49pm 14.8 14.2 13.6 92 0.7 ENE 9 15 5 8 1020.5 - 5.6
27/06:30pm 14.7 14.1 13.6 93 0.6 ENE 9 15 5 8 1020.1 - 5.6
27/06:00pm 15.1 13.8 13.7 91 0.8 E 13 15 7 8 1020.5 1018.8 5.6
27/05:30pm 15.3 13.4 14.1 92 0.7 SE 17 20 9 11 1020.1 - 5.6
27/05:00pm 15.2 12.7 13.4 89 1.0 E 19 24 10 13 1020.1 - 5.6
27/04:30pm 15.2 13.8 13.3 88 1.1 E 13 15 7 8 1020.7 - 5.6
27/04:00pm 15.1 13.6 13.1 88 1.1 ENE 13 19 7 10 1020.7 - 5.2
27/03:30pm 15.0 14.0 13.4 90 0.9 E 11 15 6 8 1020.8 - 5.2
27/03:27pm 14.9 14.2 13.1 89 1.0 E 9 15 5 8 1020.9 - 5.2
27/03:08pm 14.9 14.7 13.5 91 0.8 ENE 7 13 4 7 1021.4 - 4.2
27/03:00pm 15.0 14.3 13.2 89 1.0 ENE 9 13 5 7 1021.4 1019.7 3.6
27/02:30pm 15.2 14.9 13.4 89 1.0 NE 7 13 4 7 1021.6 - 2.8
27/02:00pm 15.2 13.5 12.5 84 1.5 E 13 19 7 10 1021.7 - 2.4
27/01:30pm 15.4 14.5 13.8 90 0.9 ESE 11 17 6 9 1021.8 - 2.0
27/01:00pm 15.1 14.4 13.3 89 1.0 SE 9 11 5 6 1022.3 - 1.6
27/12:30pm 15.2 15.0 12.9 86 1.3 SSW 6 9 3 5 1022.9 - 1.0

Other Formats:

Comma delimited format used in spreadsheet applications
http://www.bom.gov.au/fwo/IDW60801/IDW60801.94637.axf

JavaScript Object Notation format (JSON) in row-major order
http://www.bom.gov.au/fwo/IDW60801/IDW60801.94637.json